createdAt,value
2022-08-01T00:02:14.970Z,98091.81
2022-08-01T00:07:17.060Z,98081.41
2022-08-01T00:12:19.102Z,98071.81
2022-08-01T00:17:21.023Z,98070.72
2022-08-01T00:22:22.900Z,98071.44
2022-08-01T00:27:24.874Z,98072.75
2022-08-01T00:32:26.786Z,98073.00
2022-08-01T00:37:28.896Z,98075.88
2022-08-01T00:42:30.799Z,98071.41
2022-08-01T00:47:32.766Z,98075.09
2022-08-01T00:52:35.859Z,98070.53
2022-08-01T00:58:02.343Z,98077.06
2022-08-01T01:03:00.801Z,98076.44
2022-08-01T01:08:12.797Z,98058.34
2022-08-01T01:14:08.285Z,98061.41
2022-08-01T01:19:15.506Z,98061.84
2022-08-01T01:24:54.191Z,98065.44
2022-08-01T01:30:01.149Z,98056.16
2022-08-01T01:35:09.204Z,98056.41
2022-08-01T01:40:13.429Z,98053.22
2022-08-01T01:45:17.084Z,98047.13
2022-08-01T01:50:22.064Z,98042.06
2022-08-01T01:55:27.102Z,98044.72
2022-08-01T02:00:30.384Z,98036.00
2022-08-01T02:05:35.538Z,98031.75
2022-08-01T02:10:40.114Z,98037.34
2022-08-01T02:16:00.123Z,98042.38
2022-08-01T02:21:06.370Z,98048.47
2022-08-01T02:26:14.674Z,98047.69
2022-08-01T02:31:21.653Z,98045.28
2022-08-01T02:36:31.611Z,98047.38
2022-08-01T02:41:41.099Z,98061.13
2022-08-01T02:46:51.511Z,98068.03
2022-08-01T02:51:56.709Z,98074.91
2022-08-01T02:56:59.892Z,98074.28
2022-08-01T03:02:05.508Z,98071.75
2022-08-01T03:07:10.437Z,98061.59
2022-08-01T03:12:26.222Z,98059.91
2022-08-01T03:17:29.913Z,98066.47
2022-08-01T03:22:34.544Z,98067.53
2022-08-01T03:27:58.140Z,98071.44
2022-08-01T03:33:01.127Z,98067.22
2022-08-01T03:38:16.208Z,98061.06
2022-08-01T03:43:28.526Z,98067.84
2022-08-01T03:48:33.249Z,98071.53
2022-08-01T03:53:37.930Z,98071.53
2022-08-01T03:58:44.838Z,98068.09
2022-08-01T04:03:53.051Z,98076.81
2022-08-01T04:08:58.302Z,98082.91
2022-08-01T04:14:00.303Z,98085.72
2022-08-01T04:19:02.645Z,98084.56
2022-08-01T04:24:15.033Z,98087.69
2022-08-01T04:29:18.789Z,98096.88
2022-08-01T04:34:24.049Z,98097.13
2022-08-01T04:39:29.599Z,98097.69
2022-08-01T04:44:33.794Z,98101.69
2022-08-01T04:49:48.988Z,98101.44
2022-08-01T04:54:51.936Z,98106.97
2022-08-01T04:59:57.972Z,98110.41
2022-08-01T05:04:59.870Z,98110.41
2022-08-01T05:10:02.421Z,98104.09
2022-08-01T05:15:13.168Z,98105.69
2022-08-01T05:20:24.906Z,98119.94
2022-08-01T05:25:54.894Z,98121.78
2022-08-01T05:30:48.785Z,98121.53
2022-08-01T05:35:50.701Z,98121.91
2022-08-01T05:40:52.976Z,98121.75
2022-08-01T05:45:54.872Z,98113.19
2022-08-01T05:50:58.632Z,98118.53
2022-08-01T05:56:03.120Z,98115.09
2022-08-01T06:01:05.139Z,98121.44
2022-08-01T06:06:07.590Z,98130.16
2022-08-01T06:11:09.492Z,98137.28
2022-08-01T06:16:15.422Z,98140.72
2022-08-01T06:21:18.531Z,98145.44
2022-08-01T06:26:21.784Z,98147.53
2022-08-01T06:31:29.311Z,98147.78
2022-08-01T06:36:33.766Z,98155.94
2022-08-01T06:41:37.258Z,98158.25
2022-08-01T06:46:40.828Z,98157.22
2022-08-01T06:51:42.752Z,98169.38
2022-08-01T06:56:44.701Z,98164.81
2022-08-01T07:01:46.742Z,98164.19
2022-08-01T07:06:48.636Z,98167.03
2022-08-01T07:11:51.999Z,98168.19
2022-08-01T07:16:53.922Z,98175.72
2022-08-01T07:21:55.861Z,98180.75
2022-08-01T07:26:59.982Z,98174.44
2022-08-01T07:32:22.199Z,98184.22
2022-08-01T07:37:45.519Z,98186.44
2022-08-01T07:42:48.232Z,98187.72
2022-08-01T07:47:53.196Z,98199.19
2022-08-01T07:52:55.067Z,98197.50
2022-08-01T07:57:57.260Z,98191.31
2022-08-01T08:03:00.732Z,98190.53
2022-08-01T08:08:07.126Z,98190.38
2022-08-01T08:13:09.365Z,98194.72
2022-08-01T08:18:11.502Z,98199.41
2022-08-01T08:23:42.464Z,98189.00
2022-08-01T08:28:47.646Z,98195.50
2022-08-01T08:33:49.645Z,98195.53
2022-08-01T08:38:51.653Z,98195.94
2022-08-01T08:43:54.998Z,98199.44
2022-08-01T08:48:57.678Z,98196.09
2022-08-01T08:54:05.194Z,98197.69
2022-08-01T08:59:07.562Z,98193.59
2022-08-01T09:04:10.520Z,98195.66
2022-08-01T09:09:12.504Z,98201.03
2022-08-01T09:14:25.284Z,98200.34
2022-08-01T09:19:39.652Z,98209.78
2022-08-01T09:24:43.421Z,98202.41
2022-08-01T09:29:46.130Z,98212.19
2022-08-01T09:34:56.494Z,98208.66
2022-08-01T09:39:59.347Z,98207.13
2022-08-01T09:45:02.998Z,98203.13
2022-08-01T09:50:11.361Z,98201.31
2022-08-01T09:55:13.753Z,98199.63
2022-08-01T10:00:42.767Z,98211.22
2022-08-01T10:05:44.076Z,98198.72
2022-08-01T10:11:13.066Z,98191.47
2022-08-01T10:16:19.316Z,98186.09
2022-08-01T10:21:56.388Z,98195.53
2022-08-01T10:26:59.736Z,98190.81
2022-08-01T10:32:02.293Z,98182.38
2022-08-01T10:37:08.983Z,98184.44
2022-08-01T10:42:15.628Z,98204.03
2022-08-01T10:47:53.013Z,98220.22
2022-08-01T10:53:23.933Z,98229.09
2022-08-01T10:58:42.735Z,98220.63
2022-08-01T11:04:06.511Z,98218.28
2022-08-01T11:09:16.284Z,98229.28
2022-08-01T11:14:26.108Z,98230.03
2022-08-01T11:20:08.145Z,98229.53
2022-08-01T11:25:10.627Z,98218.78
2022-08-01T11:30:15.522Z,98210.28
2022-08-01T11:35:24.760Z,98208.97
2022-08-01T11:40:29.117Z,98200.19
2022-08-01T11:45:52.671Z,98193.28
2022-08-01T11:51:02.866Z,98184.50
2022-08-01T11:56:04.979Z,98189.03
2022-08-01T12:01:07.679Z,98198.16
2022-08-01T12:06:11.185Z,98201.28
2022-08-01T12:11:13.065Z,98190.88
2022-08-01T12:16:16.208Z,98192.41
2022-08-01T12:21:18.005Z,98205.88
2022-08-01T12:31:36.229Z,98192.91
2022-08-01T12:36:38.180Z,98206.72
2022-08-01T12:41:40.203Z,98197.69
2022-08-01T12:46:44.620Z,98208.66
2022-08-01T12:51:57.266Z,98207.59
2022-08-01T12:56:59.685Z,98206.28
2022-08-01T13:02:10.192Z,98203.69
2022-08-01T13:07:12.440Z,98202.13
2022-08-01T13:12:14.665Z,98197.66
2022-08-01T13:17:32.699Z,98194.44
2022-08-01T13:22:38.922Z,98197.97
2022-08-01T13:27:41.179Z,98204.63
2022-08-01T13:33:00.427Z,98190.31
2022-08-01T13:38:02.826Z,98197.25
2022-08-01T13:43:05.040Z,98205.47
2022-08-01T13:48:12.783Z,98194.59
2022-08-01T13:53:21.571Z,98196.97
2022-08-01T13:58:24.225Z,98202.28
2022-08-01T14:03:26.571Z,98199.38
2022-08-01T14:08:36.243Z,98204.44
2022-08-01T14:13:40.114Z,98211.06
2022-08-01T14:18:49.483Z,98219.88
2022-08-01T14:23:51.464Z,98215.59
2022-08-01T14:28:53.903Z,98212.66
2022-08-01T14:33:55.822Z,98216.91
2022-08-01T14:39:01.161Z,98226.22
2022-08-01T14:44:03.657Z,98224.38
2022-08-01T14:49:05.739Z,98232.13
2022-08-01T14:54:07.931Z,98235.31
2022-08-01T14:59:21.918Z,98229.16
2022-08-01T15:04:24.320Z,98238.44
2022-08-01T15:09:26.496Z,98235.78
2022-08-01T15:14:47.415Z,98242.69
2022-08-01T15:19:51.596Z,98240.03
2022-08-01T15:24:57.566Z,98245.59
2022-08-01T15:29:59.889Z,98248.00
2022-08-01T15:35:02.250Z,98250.41
2022-08-01T15:40:07.138Z,98248.78
2022-08-01T15:45:20.653Z,98252.22
2022-08-01T15:50:32.849Z,98252.22
2022-08-01T15:55:38.844Z,98248.50
2022-08-01T16:00:41.945Z,98256.75
2022-08-01T16:05:46.619Z,98260.72
2022-08-01T16:10:48.843Z,98258.31
2022-08-01T16:15:50.826Z,98260.97
2022-08-01T16:20:52.915Z,98249.53
2022-08-01T16:25:55.111Z,98254.31
2022-08-01T16:31:15.259Z,98247.94
2022-08-01T16:36:19.590Z,98245.28
2022-08-01T16:41:21.908Z,98252.72
2022-08-01T16:46:28.283Z,98250.56
2022-08-01T16:51:32.652Z,98255.81
2022-08-01T16:56:35.668Z,98256.88
2022-08-01T17:01:58.425Z,98259.50
2022-08-01T17:07:00.205Z,98261.59
2022-08-01T17:12:02.073Z,98257.84
2022-08-01T17:17:04.315Z,98257.31
2022-08-01T17:22:06.475Z,98263.66
2022-08-01T17:27:12.695Z,98269.19
2022-08-01T17:32:15.493Z,98271.03
2022-08-01T17:37:17.652Z,98278.16
2022-08-01T17:42:20.712Z,98278.38
2022-08-01T17:47:49.349Z,98286.31
2022-08-01T17:52:55.558Z,98290.53
2022-08-01T17:57:57.516Z,98289.91
2022-08-01T18:02:59.550Z,98290.94
2022-08-01T18:08:27.310Z,98286.63
2022-08-01T18:13:29.505Z,98295.09
2022-08-01T18:18:33.702Z,98294.75
2022-08-01T18:23:37.005Z,98307.69
2022-08-01T18:28:46.387Z,98305.00
2022-08-01T18:33:49.478Z,98304.38
2022-08-01T18:38:51.342Z,98308.53
2022-08-01T18:44:05.511Z,98332.31
2022-08-01T18:49:12.581Z,98340.66
2022-08-01T18:54:15.332Z,98342.97
2022-08-01T18:59:19.192Z,98343.94
2022-08-01T19:04:21.171Z,98345.72
2022-08-01T19:09:23.786Z,98346.97
2022-08-01T19:14:25.810Z,98354.03
2022-08-01T19:19:28.787Z,98359.78
2022-08-01T19:24:32.731Z,98374.56
2022-08-01T19:29:38.027Z,98367.34
2022-08-01T19:34:54.307Z,98388.22
2022-08-01T19:39:57.809Z,98396.34
2022-08-01T19:45:02.385Z,98406.00
2022-08-01T19:50:05.978Z,98417.56
2022-08-01T19:55:09.022Z,98408.19
2022-08-01T20:00:13.009Z,98417.56
2022-08-01T20:05:36.301Z,98424.63
2022-08-01T20:10:38.552Z,98438.59
2022-08-01T20:15:43.143Z,98443.00
2022-08-01T20:20:49.816Z,98441.06
2022-08-01T20:25:58.716Z,98446.25
2022-08-01T20:31:05.372Z,98453.31
2022-08-01T20:36:12.185Z,98448.16
2022-08-01T20:41:28.041Z,98448.88
2022-08-01T20:46:30.550Z,98455.69
2022-08-01T20:51:32.462Z,98466.13
2022-08-01T20:57:05.200Z,98456.03
2022-08-01T21:02:29.977Z,98469.16
2022-08-01T21:07:40.749Z,98462.16
2022-08-01T21:12:50.614Z,98457.56
2022-08-01T21:17:58.292Z,98462.75
2022-08-01T21:23:14.932Z,98473.81
2022-08-01T21:28:19.284Z,98467.03
2022-08-01T21:33:23.603Z,98463.84
2022-08-01T21:38:27.798Z,98472.00
2022-08-01T21:43:33.147Z,98459.00
2022-08-01T21:48:39.496Z,98471.09
2022-08-01T21:54:10.663Z,98469.25
2022-08-01T21:59:29.504Z,98477.41
2022-08-01T22:04:43.138Z,98477.97
2022-08-01T22:09:49.001Z,98485.91
2022-08-01T22:14:56.112Z,98490.41
2022-08-01T22:19:58.860Z,98493.75
2022-08-01T22:25:01.013Z,98506.84
2022-08-01T22:30:06.667Z,98505.25
2022-08-01T22:35:12.556Z,98506.50
2022-08-01T22:40:15.842Z,98509.84
2022-08-01T22:45:33.577Z,98516.16
2022-08-01T22:50:42.409Z,98513.06
2022-08-01T22:55:57.796Z,98505.81
2022-08-01T23:01:06.824Z,98507.53
2022-08-01T23:06:13.769Z,98517.19
2022-08-01T23:11:15.792Z,98519.13
2022-08-01T23:16:19.104Z,98516.94
2022-08-01T23:21:23.062Z,98519.69
2022-08-01T23:26:28.802Z,98507.16
2022-08-01T23:31:58.220Z,98514.16
2022-08-01T23:36:53.958Z,98521.16
2022-08-01T23:41:57.947Z,98522.06
2022-08-01T23:47:01.112Z,98519.53
2022-08-01T23:52:04.658Z,98510.69
2022-08-01T23:57:06.596Z,98509.41
